Time;durP1;ratioP1;P1;durP2;ratioP2;P2;SDS_P1;SDS_P2;PMS_P1;PMS_P2;Temp;Humidity;BMP_temperature;BMP_pressure;BME280_temperature;BME280_humidity;BME280_pressure;Samples;Min_cycle;Max_cycle;Signal;HPM_P1;HPM_P2
2021/12/10 06:36:54;;;;;;;26.38;14.77;;;;;;;;;;5045515;23;20524;-65
2021/12/10 06:39:20;;;;;;;27.30;15.27;;;;;;;;;;5013903;28;20025;-63
2021/12/10 06:41:55;;;;;;;26.55;14.18;;;;;;;;;;5013756;28;20105;-67
2021/12/10 06:44:23;;;;;;;25.17;14.88;;;;;;;;;;5013969;28;20022;-69
2021/12/10 06:46:49;;;;;;;27.33;15.00;;;;;;;;;;5013111;28;20034;-70
2021/12/10 06:49:16;;;;;;;24.02;14.75;;;;;;;;;;5013345;28;20065;-65
2021/12/10 06:51:43;;;;;;;25.65;16.35;;;;;;;;;;5013166;28;20026;-66
2021/12/10 06:54:09;;;;;;;26.83;15.68;;;;;;;;;;5013445;28;20200;-62
2021/12/10 06:56:36;;;;;;;26.90;16.92;;;;;;;;;;5013427;28;20026;-62
2021/12/10 06:59:04;;;;;;;29.10;17.42;;;;;;;;;;5013415;28;20493;-64
2021/12/10 07:01:32;;;;;;;27.58;17.30;;;;;;;;;;5013303;28;20033;-62
2021/12/10 07:03:59;;;;;;;29.40;18.02;;;;;;;;;;5013344;28;20039;-61
2021/12/10 07:06:26;;;;;;;27.60;17.35;;;;;;;;;;4988654;28;20131;-63
2021/12/10 07:08:52;;;;;;;26.77;16.40;;;;;;;;;;5002132;28;20034;-63
2021/12/10 07:11:19;;;;;;;25.75;16.60;;;;;;;;;;5000718;28;20030;-62
2021/12/10 07:13:46;;;;;;;27.90;17.63;;;;;;;;;;5000950;28;20027;-62
2021/12/10 07:16:14;;;;;;;42.55;24.50;;;;;;;;;;5002268;28;20033;-61
2021/12/10 07:18:40;;;;;;;35.92;21.05;;;;;;;;;;5002893;28;20406;-61
2021/12/10 07:21:07;;;;;;;34.45;21.83;;;;;;;;;;5001288;28;20027;-63
2021/12/10 07:23:33;;;;;;;30.33;18.05;;;;;;;;;;4983785;28;20124;-67
2021/12/10 07:25:59;;;;;;;25.50;16.95;;;;;;;;;;5002780;28;20037;-69
2021/12/10 07:28:25;;;;;;;27.17;16.92;;;;;;;;;;5001192;28;20033;-64
2021/12/10 07:30:52;;;;;;;27.52;17.52;;;;;;;;;;4984139;28;20541;-64
2021/12/10 07:33:19;;;;;;;25.58;16.25;;;;;;;;;;5004494;28;20041;-65
2021/12/10 07:35:46;;;;;;;25.17;17.00;;;;;;;;;;4995741;28;20050;-63
2021/12/10 07:38:12;;;;;;;27.40;15.98;;;;;;;;;;4982262;28;20027;-65
2021/12/10 07:40:38;;;;;;;24.15;14.90;;;;;;;;;;4982024;28;20026;-66
2021/12/10 07:43:06;;;;;;;19.35;13.32;;;;;;;;;;4973397;28;20026;-63
2021/12/10 07:45:33;;;;;;;19.10;12.30;;;;;;;;;;4984093;28;20064;-64
2021/12/10 07:48:00;;;;;;;18.75;12.85;;;;;;;;;;4975219;28;20034;-64
2021/12/10 07:50:33;;;;;;;22.50;13.32;;;;;;;;;;4991746;28;20049;-65
2021/12/10 07:52:59;;;;;;;19.08;12.48;;;;;;;;;;4980736;28;20014;-64
2021/12/10 07:55:26;;;;;;;17.23;12.20;;;;;;;;;;4981142;28;20069;-66
2021/12/10 07:57:53;;;;;;;17.35;12.15;;;;;;;;;;4973545;28;20102;-64
2021/12/10 08:00:20;;;;;;;19.75;14.05;;;;;;;;;;4973231;28;20023;-64
2021/12/10 08:02:47;;;;;;;23.75;15.57;;;;;;;;;;4972164;28;20041;-61
2021/12/10 08:05:13;;;;;;;27.23;19.30;;;;;;;;;;4972669;28;20506;-62
2021/12/10 08:07:39;;;;;;;21.60;15.18;;;;;;;;;;4972691;28;20046;-62
2021/12/10 08:10:07;;;;;;;23.10;15.65;;;;;;;;;;4972835;28;20387;-62
2021/12/10 08:12:33;;;;;;;22.50;14.23;;;;;;;;;;4972720;28;20034;-64
2021/12/10 08:14:59;;;;;;;26.75;16.13;;;;;;;;;;4972642;28;20019;-65
2021/12/10 08:17:25;;;;;;;23.02;15.43;;;;;;;;;;4972850;28;20076;-62
2021/12/10 08:19:52;;;;;;;24.90;16.13;;;;;;;;;;4972953;28;20030;-65
2021/12/10 08:22:18;;;;;;;25.70;16.80;;;;;;;;;;4970948;28;20530;-63
2021/12/10 08:24:45;;;;;;;26.35;17.33;;;;;;;;;;4967048;28;20114;-63
2021/12/10 08:27:11;;;;;;;28.73;18.55;;;;;;;;;;4972931;28;20434;-66
2021/12/10 08:29:37;;;;;;;26.02;16.60;;;;;;;;;;4972118;28;20363;-64
2021/12/10 08:32:04;;;;;;;23.13;15.95;;;;;;;;;;4972420;28;20049;-65
2021/12/10 08:34:30;;;;;;;25.35;15.98;;;;;;;;;;4972292;28;20034;-63
2021/12/10 08:36:57;;;;;;;24.38;16.30;;;;;;;;;;4954717;28;20047;-63
2021/12/10 08:39:23;;;;;;;20.95;13.70;;;;;;;;;;4972802;28;20101;-62
2021/12/10 08:41:49;;;;;;;20.13;13.45;;;;;;;;;;4972340;28;20026;-62
2021/12/10 08:44:15;;;;;;;24.88;14.63;;;;;;;;;;4972652;28;20106;-65
2021/12/10 08:46:43;;;;;;;20.80;13.88;;;;;;;;;;4972034;28;20042;-62
2021/12/10 08:49:09;;;;;;;20.33;13.63;;;;;;;;;;4989786;28;20033;-63
2021/12/10 08:51:37;;;;;;;18.25;12.75;;;;;;;;;;4992079;28;20034;-63
2021/12/10 08:54:04;;;;;;;21.63;14.65;;;;;;;;;;4991731;28;20110;-65
2021/12/10 08:56:30;;;;;;;27.60;18.90;;;;;;;;;;4991554;28;20038;-65
2021/12/10 08:58:57;;;;;;;20.00;13.40;;;;;;;;;;4991926;28;20036;-63
2021/12/10 09:01:29;;;;;;;19.77;13.00;;;;;;;;;;4991890;28;20037;-64
2021/12/10 09:03:57;;;;;;;20.13;13.35;;;;;;;;;;4991593;28;20054;-63
2021/12/10 09:06:26;;;;;;;18.10;12.07;;;;;;;;;;4973678;28;20414;-63
2021/12/10 09:08:53;;;;;;;19.33;13.43;;;;;;;;;;4991236;28;20379;-64
2021/12/10 09:11:19;;;;;;;18.55;12.63;;;;;;;;;;4974132;28;20042;-64
2021/12/10 09:13:45;;;;;;;19.83;12.65;;;;;;;;;;4991442;28;20053;-63
2021/12/10 09:16:19;;;;;;;17.70;12.32;;;;;;;;;;4991582;28;20057;-64
2021/12/10 09:18:45;;;;;;;17.40;12.25;;;;;;;;;;4991108;28;20033;-64
2021/12/10 09:21:11;;;;;;;20.30;13.02;;;;;;;;;;4973766;28;20445;-66
2021/12/10 09:23:38;;;;;;;20.25;14.15;;;;;;;;;;4991445;28;20466;-66
2021/12/10 09:26:08;;;;;;;24.58;14.65;;;;;;;;;;4991265;28;20526;-65
2021/12/10 09:28:36;;;;;;;20.15;13.93;;;;;;;;;;4991254;28;20450;-63
2021/12/10 09:31:02;;;;;;;23.05;14.82;;;;;;;;;;4991102;28;20030;-66
2021/12/10 09:33:29;;;;;;;22.17;15.02;;;;;;;;;;4991535;28;20026;-65
2021/12/10 09:35:55;;;;;;;22.38;13.60;;;;;;;;;;4994920;28;20108;-65
2021/12/10 09:38:23;;;;;;;21.23;14.15;;;;;;;;;;4991933;28;20031;-68
2021/12/10 09:40:52;;;;;;;22.45;13.60;;;;;;;;;;4984726;28;20485;-69
2021/12/10 09:43:19;;;;;;;21.30;13.90;;;;;;;;;;4984482;28;20014;-67
2021/12/10 09:45:45;;;;;;;19.92;13.13;;;;;;;;;;4982678;28;20042;-65
2021/12/10 09:48:13;;;;;;;23.33;14.95;;;;;;;;;;4984153;28;20018;-64
2021/12/10 09:50:46;;;;;;;21.58;14.20;;;;;;;;;;4984658;28;20031;-65
2021/12/10 09:53:12;;;;;;;22.48;14.82;;;;;;;;;;4983696;28;20015;-66
2021/12/10 09:55:38;;;;;;;22.92;15.13;;;;;;;;;;4983223;28;20030;-66
2021/12/10 09:58:04;;;;;;;23.10;15.50;;;;;;;;;;4983801;28;20033;-64
2021/12/10 10:00:44;;;;;;;24.45;14.82;;;;;;;;;;4983534;28;20489;-63
2021/12/10 10:03:13;;;;;;;24.30;16.20;;;;;;;;;;4994476;28;20031;-66
2021/12/10 10:05:42;;;;;;;26.25;16.65;;;;;;;;;;4994346;28;20096;-62
2021/12/10 10:08:10;;;;;;;25.30;16.15;;;;;;;;;;4994481;28;20019;-64
2021/12/10 10:10:38;;;;;;;25.55;16.45;;;;;;;;;;4994535;28;20475;-66
2021/12/10 10:13:06;;;;;;;27.98;17.27;;;;;;;;;;4985274;28;20066;-63
2021/12/10 10:15:34;;;;;;;28.00;18.52;;;;;;;;;;4982536;28;20023;-67
2021/12/10 10:18:01;;;;;;;27.90;18.27;;;;;;;;;;4993858;28;20150;-67
2021/12/10 10:20:29;;;;;;;27.17;17.60;;;;;;;;;;4985426;28;20113;-68
2021/12/10 10:22:55;;;;;;;26.05;17.35;;;;;;;;;;4982217;28;20359;-69
2021/12/10 10:25:23;;;;;;;27.48;17.95;;;;;;;;;;4982635;28;20034;-67
2021/12/10 10:27:50;;;;;;;25.35;17.20;;;;;;;;;;4983492;28;20101;-67
2021/12/10 10:30:28;;;;;;;24.13;16.08;;;;;;;;;;4984622;28;20120;-66
2021/12/10 10:32:59;;;;;;;24.00;15.55;;;;;;;;;;4984232;28;20073;-63
2021/12/10 10:35:27;;;;;;;25.52;16.30;;;;;;;;;;4982603;28;20047;-64
2021/12/10 10:37:54;;;;;;;24.50;16.80;;;;;;;;;;4964794;28;20025;-66
2021/12/10 10:40:22;;;;;;;25.42;17.58;;;;;;;;;;4983986;28;20026;-65
2021/12/10 10:42:50;;;;;;;26.92;17.77;;;;;;;;;;4983074;28;20041;-67
2021/12/10 10:45:20;;;;;;;29.38;19.75;;;;;;;;;;4980832;28;20042;-65
2021/12/10 10:47:46;;;;;;;40.50;23.42;;;;;;;;;;4983362;28;20014;-64
2021/12/10 10:50:14;;;;;;;39.90;23.55;;;;;;;;;;4983486;28;20033;-66
2021/12/10 10:52:43;;;;;;;37.95;24.27;;;;;;;;;;4981905;28;20023;-63
2021/12/10 10:55:12;;;;;;;34.83;22.30;;;;;;;;;;4982718;28;20027;-64
2021/12/10 10:57:40;;;;;;;31.73;20.23;;;;;;;;;;4983903;28;20033;-67
2021/12/10 11:00:15;;;;;;;33.00;20.50;;;;;;;;;;4960975;28;20065;-67
2021/12/10 11:02:50;;;;;;;30.88;19.63;;;;;;;;;;4983011;28;20719;-66
2021/12/10 11:05:18;;;;;;;31.90;19.70;;;;;;;;;;4981526;28;20039;-62
2021/12/10 11:07:47;;;;;;;32.13;21.15;;;;;;;;;;4980950;28;20041;-65
2021/12/10 11:10:14;;;;;;;34.15;21.05;;;;;;;;;;4983040;28;20023;-64
2021/12/10 11:12:42;;;;;;;30.25;18.48;;;;;;;;;;4963934;28;20081;-66
2021/12/10 11:15:10;;;;;;;27.63;18.55;;;;;;;;;;4982838;28;20105;-65
2021/12/10 11:17:42;;;;;;;29.98;18.08;;;;;;;;;;4983090;28;20055;-64
2021/12/10 11:20:14;;;;;;;27.92;16.35;;;;;;;;;;4981770;28;20495;-63
2021/12/10 11:22:48;;;;;;;23.13;16.30;;;;;;;;;;4981657;28;20483;-63
2021/12/10 11:25:18;;;;;;;25.67;17.83;;;;;;;;;;4980885;28;20038;-66
2021/12/10 11:27:46;;;;;;;26.75;18.45;;;;;;;;;;4981027;28;20184;-63
2021/12/10 11:30:25;;;;;;;37.42;21.30;;;;;;;;;;4984290;28;20153;-68
2021/12/10 11:33:04;;;;;;;26.50;16.80;;;;;;;;;;4993151;28;20128;-63
2021/12/10 11:35:39;;;;;;;46.72;27.02;;;;;;;;;;4992465;28;20071;-67
2021/12/10 11:38:10;;;;;;;63.20;33.78;;;;;;;;;;4992810;28;20038;-64
2021/12/10 11:40:38;;;;;;;42.08;25.05;;;;;;;;;;4992646;28;20276;-64
2021/12/10 11:46:05;;;;;;;34.20;21.40;;;;;;;;;;4992546;28;20133;-62
2021/12/10 11:48:33;;;;;;;37.60;22.60;;;;;;;;;;4984260;28;20467;-62
2021/12/10 11:51:05;;;;;;;36.00;22.63;;;;;;;;;;4982610;28;20019;-62
2021/12/10 11:53:36;;;;;;;38.90;22.52;;;;;;;;;;4971748;28;20038;-62
2021/12/10 11:56:06;;;;;;;45.57;27.87;;;;;;;;;;4970852;28;20745;-63
2021/12/10 11:58:32;;;;;;;36.70;23.23;;;;;;;;;;4982593;28;20314;-61
2021/12/10 12:00:58;;;;;;;43.97;26.55;;;;;;;;;;4991593;28;20027;-66
2021/12/10 12:03:32;;;;;;;39.15;23.13;;;;;;;;;;4991371;28;20034;-63
2021/12/10 12:05:58;;;;;;;34.17;22.20;;;;;;;;;;4990974;28;20081;-62
2021/12/10 12:08:25;;;;;;;34.60;21.95;;;;;;;;;;4991463;28;20030;-62
2021/12/10 12:10:52;;;;;;;33.63;21.20;;;;;;;;;;4991089;28;20454;-62
2021/12/10 12:13:56;;;;;;;33.85;22.40;;;;;;;;;;4984584;28;20463;-61
2021/12/10 12:16:16;;;;;;;34.55;21.50;;;;;;;;;;4975883;28;20034;-61
2021/12/10 12:18:44;;;;;;;37.17;22.38;;;;;;;;;;4962254;28;20026;-63
2021/12/10 12:33:12;;;;;;;49.10;29.08;;;;;;;;;;4990905;28;20045;-61
2021/12/10 12:41:54;;;;;;;51.88;31.25;;;;;;;;;;4981732;28;20081;-63
2021/12/10 12:44:45;;;;;;;55.40;31.52;;;;;;;;;;4973673;28;20065;-65
2021/12/10 12:50:06;;;;;;;42.72;27.00;;;;;;;;;;5444623;23;20057;-69
2021/12/10 12:52:32;;;;;;;;;;;;;;;;;;4969056;28;20038;-70
2021/12/10 12:55:20;;;;;;;34.22;20.65;;;;;;;;;;4972282;28;19913;-62
2021/12/10 12:58:04;;;;;;;46.60;26.35;;;;;;;;;;4971106;28;20497;-73
2021/12/10 13:00:43;;;;;;;37.17;23.15;;;;;;;;;;4934774;29;20030;-64
2021/12/10 13:03:12;;;;;;;36.63;22.85;;;;;;;;;;4951592;28;20562;-63
2021/12/10 13:05:43;;;;;;;33.65;20.15;;;;;;;;;;4943961;29;20122;-62
2021/12/10 13:08:11;;;;;;;36.27;22.20;;;;;;;;;;4951186;29;20058;-73
2021/12/10 13:10:40;;;;;;;44.92;22.65;;;;;;;;;;4953129;29;20027;-63
2021/12/10 13:13:15;;;;;;;36.67;20.95;;;;;;;;;;4953660;29;20494;-65
2021/12/10 13:15:50;;;;;;;35.10;21.30;;;;;;;;;;4952840;29;20521;-62
2021/12/10 13:18:17;;;;;;;37.75;20.70;;;;;;;;;;4952850;29;20030;-69
2021/12/10 13:20:46;;;;;;;36.13;22.02;;;;;;;;;;4952760;29;20074;-72
2021/12/10 13:23:20;;;;;;;36.88;21.83;;;;;;;;;;4946480;29;20058;-72
2021/12/10 13:25:46;;;;;;;37.17;22.08;;;;;;;;;;4942836;29;20026;-70
2021/12/10 13:28:13;;;;;;;39.80;24.45;;;;;;;;;;4926125;29;20031;-64
2021/12/10 13:30:45;;;;;;;49.67;28.67;;;;;;;;;;4943890;29;20389;-61
2021/12/10 13:33:11;;;;;;;;;;;;;;;;;;4949672;28;20491;-67
2021/12/10 13:35:37;;;;;;;46.40;28.10;;;;;;;;;;4944663;29;19922;-67
2021/12/10 13:38:57;;;;;;;49.10;28.35;;;;;;;;;;4946814;29;20039;-61
2021/12/10 13:41:17;;;;;;;43.60;25.17;;;;;;;;;;4938251;29;20114;-72
2021/12/10 13:43:47;;;;;;;41.92;24.08;;;;;;;;;;4939843;29;20452;-62
2021/12/10 13:46:14;;;;;;;46.95;26.05;;;;;;;;;;4952581;28;20126;-62
2021/12/10 13:48:49;;;;;;;44.90;25.50;;;;;;;;;;4937318;29;20030;-73
2021/12/10 13:51:17;;;;;;;46.58;25.85;;;;;;;;;;4924089;29;20143;-65
2021/12/10 13:53:57;;;;;;;43.20;25.20;;;;;;;;;;4924288;29;20036;-76
2021/12/10 13:56:23;;;;;;;43.90;25.02;;;;;;;;;;4929372;29;20016;-68
2021/12/10 13:58:53;;;;;;;49.03;26.95;;;;;;;;;;4929217;29;20027;-63
2021/12/10 14:01:24;;;;;;;46.20;26.27;;;;;;;;;;4932923;29;20035;-64
2021/12/10 14:04:27;;;;;;;53.35;28.35;;;;;;;;;;4924719;29;20568;-72
2021/12/10 14:07:30;;;;;;;53.03;28.35;;;;;;;;;;4920611;29;20150;-72
2021/12/10 14:09:58;;;;;;;50.78;27.70;;;;;;;;;;4923373;29;20170;-70
2021/12/10 14:12:36;;;;;;;55.13;29.63;;;;;;;;;;4923828;29;20028;-66
2021/12/10 14:15:08;;;;;;;44.53;24.85;;;;;;;;;;4923273;29;20028;-66
2021/12/10 14:17:36;;;;;;;48.53;25.92;;;;;;;;;;4917236;29;20396;-61
2021/12/10 14:20:13;;;;;;;57.80;31.50;;;;;;;;;;4915244;29;20508;-71
2021/12/10 14:22:48;;;;;;;51.45;30.02;;;;;;;;;;4945029;29;20038;-61
2021/12/10 14:25:20;;;;;;;49.05;28.10;;;;;;;;;;4955676;29;20921;-73
2021/12/10 14:27:49;;;;;;;35.10;19.63;;;;;;;;;;4955303;29;20035;-77
2021/12/10 14:30:34;;;;;;;52.47;29.58;;;;;;;;;;4955296;29;20075;-74
2021/12/10 14:33:04;;;;;;;48.13;28.98;;;;;;;;;;4954989;29;20046;-73
2021/12/10 14:35:37;;;;;;;49.83;29.02;;;;;;;;;;4954283;29;20031;-75
2021/12/10 14:38:06;;;;;;;55.00;30.45;;;;;;;;;;4955042;29;20031;-62
2021/12/10 14:40:34;;;;;;;55.72;31.40;;;;;;;;;;4955449;29;20055;-70
2021/12/10 14:43:06;;;;;;;53.83;30.13;;;;;;;;;;4955032;29;20031;-72
2021/12/10 14:45:33;;;;;;;64.07;34.88;;;;;;;;;;4955076;29;20031;-73
2021/12/10 14:48:09;;;;;;;73.68;39.25;;;;;;;;;;4955228;29;20091;-71
2021/12/10 14:50:35;;;;;;;83.40;42.70;;;;;;;;;;4964350;28;20162;-72
2021/12/10 14:53:01;;;;;;;80.75;42.55;;;;;;;;;;4993748;28;20084;-68
2021/12/10 14:55:38;;;;;;;80.35;42.05;;;;;;;;;;4987164;28;20045;-68
2021/12/10 14:58:04;;;;;;;83.45;40.55;;;;;;;;;;4954411;29;20019;-71
2021/12/10 15:00:30;;;;;;;80.05;41.25;;;;;;;;;;4954912;29;20027;-70
2021/12/10 15:03:05;;;;;;;78.85;40.20;;;;;;;;;;4954623;29;20027;-63
2021/12/10 15:05:38;;;;;;;89.07;43.00;;;;;;;;;;4954233;29;20027;-71
2021/12/10 15:08:03;;;;;;;;;;;;;;;;;;4962304;28;20105;-71
2021/12/10 15:10:39;;;;;;;87.85;42.45;;;;;;;;;;4973974;28;20370;-71
2021/12/10 15:13:11;;;;;;;88.68;42.80;;;;;;;;;;4963596;28;20027;-68
2021/12/10 15:15:58;;;;;;;82.00;40.03;;;;;;;;;;4965379;28;20027;-71
2021/12/10 15:18:36;;;;;;;83.28;42.55;;;;;;;;;;4956948;28;20102;-65
2021/12/10 15:21:09;;;;;;;93.00;43.70;;;;;;;;;;4954312;29;20102;-63
2021/12/10 15:23:35;;;;;;;88.25;45.53;;;;;;;;;;4954409;29;20809;-73
2021/12/10 15:26:02;;;;;;;83.60;43.67;;;;;;;;;;4953680;29;20114;-63
2021/12/10 15:28:34;;;;;;;89.63;45.10;;;;;;;;;;4953909;29;20027;-69
2021/12/10 15:31:01;;;;;;;94.35;49.15;;;;;;;;;;4954028;28;20054;-73
2021/12/10 15:33:29;;;;;;;98.90;49.28;;;;;;;;;;4953519;29;20031;-68
2021/12/10 15:35:56;;;;;;;95.85;47.50;;;;;;;;;;4954213;29;20023;-69
2021/12/10 15:38:25;;;;;;;90.57;44.20;;;;;;;;;;4966170;28;20518;-70
2021/12/10 15:41:01;;;;;;;93.15;45.38;;;;;;;;;;4973809;28;20039;-63
2021/12/10 15:43:27;;;;;;;90.93;45.22;;;;;;;;;;4973516;28;20023;-69
2021/12/10 15:45:55;;;;;;;82.40;43.60;;;;;;;;;;4954282;28;20120;-65
2021/12/10 15:48:22;;;;;;;89.80;44.47;;;;;;;;;;4954291;29;20023;-72
2021/12/10 15:51:03;;;;;;;85.10;44.67;;;;;;;;;;4953874;28;20074;-67
2021/12/10 15:53:35;;;;;;;84.57;44.38;;;;;;;;;;4954078;28;20442;-69
2021/12/10 15:56:05;;;;;;;87.00;45.05;;;;;;;;;;4953953;29;20060;-68
2021/12/10 15:58:33;;;;;;;84.63;44.92;;;;;;;;;;4953793;29;20741;-63
2021/12/10 16:01:02;;;;;;;89.05;46.28;;;;;;;;;;4953948;29;20035;-71
2021/12/10 16:03:29;;;;;;;98.18;48.03;;;;;;;;;;4953839;29;20030;-68
2021/12/10 16:05:59;;;;;;;97.53;48.92;;;;;;;;;;4953879;28;20387;-70
2021/12/10 16:08:25;;;;;;;96.45;51.15;;;;;;;;;;4953776;29;20096;-64
2021/12/10 16:10:52;;;;;;;104.95;52.42;;;;;;;;;;4953758;29;20462;-67
2021/12/10 16:13:20;;;;;;;105.20;49.92;;;;;;;;;;4953920;28;20035;-64
2021/12/10 16:15:52;;;;;;;101.28;48.78;;;;;;;;;;4953759;29;20031;-68
2021/12/10 16:18:20;;;;;;;102.10;51.38;;;;;;;;;;4953965;29;20031;-68
2021/12/10 16:20:52;;;;;;;112.03;54.80;;;;;;;;;;4953683;29;20034;-69
2021/12/10 16:23:31;;;;;;;121.20;55.70;;;;;;;;;;4968969;28;20019;-66
2021/12/10 16:25:58;;;;;;;120.53;53.45;;;;;;;;;;4972340;28;20046;-67
2021/12/10 16:28:28;;;;;;;109.65;50.92;;;;;;;;;;4962239;28;20034;-69
2021/12/10 16:30:55;;;;;;;111.10;52.83;;;;;;;;;;4958645;28;20038;-70
2021/12/10 16:33:22;;;;;;;101.60;50.15;;;;;;;;;;4957230;28;20434;-64
2021/12/10 16:35:51;;;;;;;112.90;52.78;;;;;;;;;;4972826;28;20033;-73
2021/12/10 16:38:20;;;;;;;105.15;47.33;;;;;;;;;;4971039;28;20110;-75
2021/12/10 16:40:49;;;;;;;104.65;51.13;;;;;;;;;;4972451;28;20034;-66
2021/12/10 16:43:17;;;;;;;107.70;49.55;;;;;;;;;;4971261;28;20054;-67
2021/12/10 16:45:44;;;;;;;107.35;50.20;;;;;;;;;;4959965;28;20485;-71
2021/12/10 16:48:16;;;;;;;102.65;49.40;;;;;;;;;;4962212;28;20026;-67
2021/12/10 16:50:42;;;;;;;104.30;48.55;;;;;;;;;;4967878;28;20082;-70
2021/12/10 16:53:08;;;;;;;100.00;46.28;;;;;;;;;;4961710;28;20022;-72
2021/12/10 16:55:36;;;;;;;96.20;45.75;;;;;;;;;;4962268;28;20038;-72
2021/12/10 16:58:16;;;;;;;93.35;45.40;;;;;;;;;;4957905;28;20087;-82
2021/12/10 17:00:54;;;;;;;93.80;44.72;;;;;;;;;;4955834;28;20081;-64
2021/12/10 17:03:23;;;;;;;95.20;44.78;;;;;;;;;;4952187;29;20070;-73
2021/12/10 17:05:50;;;;;;;100.65;46.78;;;;;;;;;;4963535;28;20077;-68
2021/12/10 17:08:18;;;;;;;96.47;46.53;;;;;;;;;;4951970;29;20035;-78
2021/12/10 17:10:44;;;;;;;101.82;49.22;;;;;;;;;;4952643;29;20458;-76
2021/12/10 17:13:15;;;;;;;97.70;46.58;;;;;;;;;;4953035;29;20031;-76
2021/12/10 17:15:42;;;;;;;106.03;49.47;;;;;;;;;;4953033;29;20030;-71
2021/12/10 17:18:11;;;;;;;115.57;53.28;;;;;;;;;;4952998;29;20030;-75
2021/12/10 17:20:40;;;;;;;96.22;47.35;;;;;;;;;;4952953;29;20039;-75
2021/12/10 17:23:10;;;;;;;103.93;48.58;;;;;;;;;;4935206;29;20414;-73
2021/12/10 17:25:38;;;;;;;115.63;54.13;;;;;;;;;;4952778;29;20126;-76
2021/12/10 17:28:09;;;;;;;107.13;51.15;;;;;;;;;;4952851;29;20508;-76
2021/12/10 17:30:39;;;;;;;110.07;50.83;;;;;;;;;;4961317;28;20382;-62
2021/12/10 17:33:18;;;;;;;100.53;49.05;;;;;;;;;;4972030;28;20763;-68
2021/12/10 17:35:46;;;;;;;101.00;47.85;;;;;;;;;;4972156;28;20495;-72
2021/12/10 17:38:13;;;;;;;94.10;45.88;;;;;;;;;;4971021;28;20386;-65
2021/12/10 17:40:41;;;;;;;98.25;47.60;;;;;;;;;;4971011;28;20030;-76
2021/12/10 17:43:09;;;;;;;85.50;44.10;;;;;;;;;;4969644;28;20030;-66
2021/12/10 17:45:38;;;;;;;92.95;45.55;;;;;;;;;;4971252;28;20403;-75
2021/12/10 17:48:06;;;;;;;96.47;46.95;;;;;;;;;;4959906;28;20038;-64
2021/12/10 17:50:34;;;;;;;91.53;45.33;;;;;;;;;;4965312;28;20194;-71
2021/12/10 17:53:02;;;;;;;84.70;42.40;;;;;;;;;;4971389;28;20039;-66
2021/12/10 17:55:30;;;;;;;92.43;45.53;;;;;;;;;;4972911;28;20031;-67
2021/12/10 17:57:58;;;;;;;84.82;44.78;;;;;;;;;;4974482;28;20031;-70
2021/12/10 18:00:46;;;;;;;92.20;46.33;;;;;;;;;;4965946;28;20027;-71
2021/12/10 18:03:21;;;;;;;89.30;44.05;;;;;;;;;;4965121;28;20086;-76
2021/12/10 18:05:48;;;;;;;93.13;44.35;;;;;;;;;;4965122;28;20027;-75
2021/12/10 18:08:15;;;;;;;92.25;43.55;;;;;;;;;;4963714;28;20027;-74
2021/12/10 18:10:43;;;;;;;93.13;44.80;;;;;;;;;;4961663;28;20023;-77
2021/12/10 18:13:11;;;;;;;91.63;44.13;;;;;;;;;;4949276;28;20106;-77
2021/12/10 18:15:46;;;;;;;79.97;38.63;;;;;;;;;;4966287;28;20439;-73
2021/12/10 18:18:14;;;;;;;78.22;37.97;;;;;;;;;;4968621;28;20470;-73
2021/12/10 18:20:46;;;;;;;71.40;37.45;;;;;;;;;;4969928;28;20041;-69
2021/12/10 18:23:17;;;;;;;64.35;31.58;;;;;;;;;;4938259;29;20095;-81
2021/12/10 18:25:46;;;;;;;52.40;26.95;;;;;;;;;;4955444;29;20046;-82
2021/12/10 18:28:15;;;;;;;59.80;30.20;;;;;;;;;;4959216;28;20023;-72
2021/12/10 18:30:41;;;;;;;57.00;27.77;;;;;;;;;;4966992;28;20392;-70
2021/12/10 18:33:10;;;;;;;58.00;28.88;;;;;;;;;;4965900;28;20032;-72
2021/12/10 18:35:41;;;;;;;58.47;29.52;;;;;;;;;;4955565;29;20035;-75
2021/12/10 18:38:08;;;;;;;57.05;29.42;;;;;;;;;;4957609;28;20018;-70
2021/12/10 18:40:40;;;;;;;61.53;30.52;;;;;;;;;;4965765;28;20107;-65
2021/12/10 18:43:08;;;;;;;64.82;30.77;;;;;;;;;;4960271;28;20063;-74
2021/12/10 18:45:36;;;;;;;58.83;29.33;;;;;;;;;;4955243;29;20039;-67
2021/12/10 18:48:07;;;;;;;62.67;29.77;;;;;;;;;;4971500;28;20088;-77
2021/12/10 18:50:46;;;;;;;59.08;29.77;;;;;;;;;;4980024;28;20469;-75
2021/12/10 18:53:13;;;;;;;63.00;31.35;;;;;;;;;;4963568;28;20027;-74
2021/12/10 18:55:42;;;;;;;61.58;31.92;;;;;;;;;;4960360;28;20023;-72
2021/12/10 18:58:13;;;;;;;62.17;31.77;;;;;;;;;;4963586;28;20027;-67
2021/12/10 19:00:45;;;;;;;59.90;30.40;;;;;;;;;;4965271;28;20027;-72
2021/12/10 19:03:16;;;;;;;59.72;30.40;;;;;;;;;;4960871;28;20023;-68
2021/12/10 19:05:50;;;;;;;65.43;30.35;;;;;;;;;;4963474;28;20035;-73
2021/12/10 19:08:17;;;;;;;70.57;29.92;;;;;;;;;;4963426;28;20019;-71
2021/12/10 19:10:47;;;;;;;62.17;29.25;;;;;;;;;;4963694;28;20363;-73
2021/12/10 19:13:19;;;;;;;61.25;29.05;;;;;;;;;;4964215;28;20121;-71
2021/12/10 19:15:50;;;;;;;63.42;30.00;;;;;;;;;;4963287;28;20027;-70
2021/12/10 19:18:21;;;;;;;61.38;29.17;;;;;;;;;;4965391;28;20031;-64
2021/12/10 19:20:55;;;;;;;62.25;28.73;;;;;;;;;;4964281;28;20031;-67
2021/12/10 19:23:23;;;;;;;63.35;28.92;;;;;;;;;;4964115;28;20031;-65
2021/12/10 19:25:52;;;;;;;59.40;27.55;;;;;;;;;;4962214;28;20579;-66
2021/12/10 19:28:23;;;;;;;56.50;27.48;;;;;;;;;;4963098;28;20445;-66
2021/12/10 19:30:56;;;;;;;58.35;26.50;;;;;;;;;;4964585;28;20027;-65
2021/12/10 19:33:49;;;;;;;62.58;28.00;;;;;;;;;;4973465;28;20111;-66
2021/12/10 19:36:17;;;;;;;58.70;28.13;;;;;;;;;;4970396;28;20113;-66
2021/12/10 19:38:47;;;;;;;64.75;28.60;;;;;;;;;;4973705;28;20434;-69
2021/12/10 19:41:22;;;;;;;66.88;30.38;;;;;;;;;;4973425;28;20542;-65
2021/12/10 19:43:51;;;;;;;65.13;31.25;;;;;;;;;;4973809;28;20030;-66
2021/12/10 19:46:23;;;;;;;82.93;38.42;;;;;;;;;;4973665;28;20058;-69
2021/12/10 19:48:51;;;;;;;70.70;33.72;;;;;;;;;;4973226;28;20513;-69
2021/12/10 19:51:39;;;;;;;70.35;33.15;;;;;;;;;;4971309;28;20050;-69
2021/12/10 19:54:11;;;;;;;76.35;35.05;;;;;;;;;;4989053;28;20026;-65
2021/12/10 19:56:44;;;;;;;70.45;32.38;;;;;;;;;;4992803;28;20027;-66
2021/12/10 19:59:14;;;;;;;79.25;35.85;;;;;;;;;;4992683;28;20452;-68
2021/12/10 20:01:51;;;;;;;74.20;33.80;;;;;;;;;;4992800;28;20031;-72
2021/12/10 20:04:19;;;;;;;60.72;29.20;;;;;;;;;;4979450;28;20033;-65
2021/12/10 20:06:50;;;;;;;63.85;30.38;;;;;;;;;;4973198;28;20109;-66
2021/12/10 20:09:23;;;;;;;78.10;36.00;;;;;;;;;;4971074;28;20081;-70
2021/12/10 20:11:52;;;;;;;70.47;32.67;;;;;;;;;;4953840;29;20035;-65
2021/12/10 20:14:25;;;;;;;63.40;30.30;;;;;;;;;;4953494;29;20019;-67
2021/12/10 20:16:55;;;;;;;73.30;32.75;;;;;;;;;;4958737;28;20022;-69
2021/12/10 20:19:31;;;;;;;63.92;29.77;;;;;;;;;;4969454;28;20030;-64
2021/12/10 20:21:57;;;;;;;91.65;40.10;;;;;;;;;;4972582;28;20030;-66
2021/12/10 20:24:26;;;;;;;70.38;32.97;;;;;;;;;;4990380;28;20026;-71
2021/12/10 20:26:56;;;;;;;68.28;30.70;;;;;;;;;;4964358;28;20043;-72
2021/12/10 20:29:45;;;;;;;60.70;28.42;;;;;;;;;;4953210;29;20031;-66
2021/12/10 20:32:14;;;;;;;61.90;29.45;;;;;;;;;;4875032;29;20053;-68
2021/12/10 20:34:43;;;;;;;63.28;29.75;;;;;;;;;;4878700;29;20040;-69
2021/12/10 20:37:12;;;;;;;60.92;27.65;;;;;;;;;;4893691;29;20048;-70
2021/12/10 20:39:44;;;;;;;58.08;27.65;;;;;;;;;;4893757;29;20036;-71
2021/12/10 20:42:15;;;;;;;76.78;33.50;;;;;;;;;;4894666;29;20033;-71
2021/12/10 20:44:43;;;;;;;62.05;29.52;;;;;;;;;;4894979;29;20107;-78
2021/12/10 20:47:15;;;;;;;62.03;28.48;;;;;;;;;;4894102;29;20044;-79
2021/12/10 20:49:42;;;;;;;;;;;;;;;;;;4896365;29;20052;-64
2021/12/10 20:52:11;;;;;;;65.72;29.33;;;;;;;;;;4893977;29;19926;-70
2021/12/10 20:54:39;;;;;;;65.95;29.88;;;;;;;;;;4878401;29;20045;-70
2021/12/10 20:57:06;;;;;;;64.38;30.25;;;;;;;;;;4880426;29;20040;-73
2021/12/10 20:59:42;;;;;;;66.22;30.65;;;;;;;;;;4888325;29;20051;-65
2021/12/10 21:02:11;;;;;;;71.10;30.95;;;;;;;;;;4893585;29;20032;-72
2021/12/10 21:04:41;;;;;;;70.60;32.00;;;;;;;;;;4895622;29;20025;-75
2021/12/10 21:07:10;;;;;;;69.38;30.25;;;;;;;;;;4885601;29;20039;-69
2021/12/10 21:09:42;;;;;;;62.80;28.85;;;;;;;;;;4942732;28;20047;-73
2021/12/10 21:12:11;;;;;;;58.97;28.08;;;;;;;;;;4971944;28;20058;-71
2021/12/10 21:14:41;;;;;;;59.72;26.98;;;;;;;;;;4972093;28;20041;-71
2021/12/10 21:17:07;;;;;;;61.65;28.25;;;;;;;;;;4972220;28;20034;-77
2021/12/10 21:19:36;;;;;;;59.45;27.98;;;;;;;;;;4954675;28;20093;-66
2021/12/10 21:22:20;;;;;;;63.50;27.98;;;;;;;;;;4972164;28;20650;-68
2021/12/10 21:25:08;;;;;;;61.80;29.23;;;;;;;;;;4952430;29;20093;-72
2021/12/10 21:27:54;;;;;;;63.42;29.25;;;;;;;;;;4952569;29;20188;-74
2021/12/10 21:30:57;;;;;;;63.22;28.20;;;;;;;;;;4961393;28;20089;-77
2021/12/10 21:33:35;;;;;;;;;;;;;;;;;;5030891;23;20053;-61
2021/12/10 21:36:05;;;;;;;71.47;30.85;;;;;;;;;;4996725;28;19913;-69